Time;durP1;ratioP1;P1;durP2;ratioP2;P2;SDS_P1;SDS_P2;PMS_P1;PMS_P2;Temp;Humidity;BMP_temperature;BMP_pressure;BME280_temperature;BME280_humidity;BME280_pressure;Samples;Min_cycle;Max_cycle;Signal;HPM_P1;HPM_P2
2023/11/30 00:02:32;;;;;;;2.15;1.27;;;;;;;;;;5167526;28;20041;-55
2023/11/30 00:05:06;;;;;;;3.35;1.02;;;;;;;;;;5171620;28;20049;-55
2023/11/30 00:07:38;;;;;;;2.28;1.20;;;;;;;;;;5175211;28;20044;-54
2023/11/30 00:10:09;;;;;;;2.42;0.70;;;;;;;;;;5167896;28;20460;-55
2023/11/30 00:12:40;;;;;;;1.20;0.80;;;;;;;;;;5167868;28;20368;-55
2023/11/30 00:15:11;;;;;;;1.60;0.80;;;;;;;;;;5175152;28;20046;-55
2023/11/30 00:17:42;;;;;;;0.98;0.80;;;;;;;;;;5167797;28;20492;-55
2023/11/30 00:20:13;;;;;;;1.35;0.90;;;;;;;;;;5167041;28;20064;-54
2023/11/30 00:22:46;;;;;;;1.50;0.70;;;;;;;;;;5167712;28;20046;-54
2023/11/30 00:25:17;;;;;;;2.13;0.60;;;;;;;;;;5183899;28;20080;-54
2023/11/30 00:27:48;;;;;;;1.30;0.80;;;;;;;;;;5163704;28;20112;-54
2023/11/30 00:30:19;;;;;;;1.13;0.43;;;;;;;;;;5175302;28;20049;-54
2023/11/30 00:32:51;;;;;;;1.73;0.60;;;;;;;;;;5169130;28;20037;-55
2023/11/30 00:35:22;;;;;;;0.80;0.52;;;;;;;;;;5173400;28;20046;-55
2023/11/30 00:37:53;;;;;;;2.60;0.60;;;;;;;;;;5167420;28;20053;-55
2023/11/30 00:40:24;;;;;;;1.07;0.57;;;;;;;;;;5160746;28;20124;-55
2023/11/30 00:42:55;;;;;;;0.70;0.65;;;;;;;;;;5173042;28;20222;-55
2023/11/30 00:45:26;;;;;;;1.27;0.50;;;;;;;;;;5183839;28;20042;-55
2023/11/30 00:47:58;;;;;;;1.30;0.75;;;;;;;;;;5166892;28;20090;-55
2023/11/30 00:50:29;;;;;;;1.43;0.40;;;;;;;;;;5184059;28;20050;-55
2023/11/30 00:53:00;;;;;;;1.77;0.50;;;;;;;;;;5170862;28;20380;-55
2023/11/30 00:55:31;;;;;;;0.95;0.70;;;;;;;;;;5166644;28;20033;-55
2023/11/30 00:58:02;;;;;;;0.75;0.63;;;;;;;;;;5166478;28;20201;-55
2023/11/30 01:00:33;;;;;;;1.27;0.50;;;;;;;;;;5166788;28;20048;-55
2023/11/30 01:03:04;;;;;;;0.93;0.40;;;;;;;;;;5182883;28;20550;-56
2023/11/30 01:05:36;;;;;;;1.57;0.80;;;;;;;;;;5167633;28;20042;-55
2023/11/30 01:08:07;;;;;;;0.98;0.43;;;;;;;;;;5166034;28;20081;-56
2023/11/30 01:10:38;;;;;;;1.55;0.70;;;;;;;;;;5183205;28;20102;-56
2023/11/30 01:13:09;;;;;;;1.45;0.63;;;;;;;;;;5165796;28;20041;-53
2023/11/30 01:15:40;;;;;;;1.60;0.73;;;;;;;;;;5167321;28;20041;-56
2023/11/30 01:18:11;;;;;;;0.97;0.43;;;;;;;;;;5178711;28;20042;-56
2023/11/30 01:20:42;;;;;;;2.15;0.68;;;;;;;;;;5166337;28;20084;-58
2023/11/30 01:23:13;;;;;;;0.98;0.45;;;;;;;;;;5176329;28;20510;-58
2023/11/30 01:25:45;;;;;;;1.58;0.50;;;;;;;;;;5166217;28;20526;-57
2023/11/30 01:28:16;;;;;;;3.40;0.65;;;;;;;;;;5153030;28;20073;-55
2023/11/30 01:30:47;;;;;;;1.67;0.55;;;;;;;;;;5166080;28;20124;-55
2023/11/30 01:33:18;;;;;;;1.58;0.43;;;;;;;;;;5174515;28;20049;-54
2023/11/30 01:35:49;;;;;;;0.60;0.50;;;;;;;;;;5183570;28;20041;-55
2023/11/30 01:38:20;;;;;;;2.83;0.63;;;;;;;;;;5165942;28;20048;-54
2023/11/30 01:40:51;;;;;;;1.20;0.60;;;;;;;;;;5165519;28;20056;-55
2023/11/30 01:43:23;;;;;;;2.70;0.68;;;;;;;;;;5146286;28;20125;-55
2023/11/30 01:45:54;;;;;;;2.20;0.70;;;;;;;;;;5183537;28;20044;-55
2023/11/30 01:48:25;;;;;;;2.27;0.50;;;;;;;;;;5170832;28;20042;-56
2023/11/30 01:50:56;;;;;;;0.63;0.35;;;;;;;;;;5165572;28;20037;-56
2023/11/30 01:53:28;;;;;;;1.40;0.70;;;;;;;;;;5165733;28;20060;-56
2023/11/30 01:55:59;;;;;;;1.67;0.50;;;;;;;;;;5165797;28;21144;-57
2023/11/30 01:58:30;;;;;;;1.60;0.40;;;;;;;;;;5165831;28;20108;-57
2023/11/30 02:01:01;;;;;;;2.30;0.57;;;;;;;;;;5165842;28;20038;-56
2023/11/30 02:03:33;;;;;;;1.10;0.60;;;;;;;;;;5165565;28;20046;-56
2023/11/30 02:06:04;;;;;;;1.47;0.40;;;;;;;;;;5165438;28;20038;-57
2023/11/30 02:08:35;;;;;;;1.38;0.30;;;;;;;;;;5165568;28;20046;-56
2023/11/30 02:11:07;;;;;;;1.70;0.30;;;;;;;;;;5165563;28;20485;-57
2023/11/30 02:13:38;;;;;;;3.90;0.57;;;;;;;;;;5166891;28;20033;-56
2023/11/30 02:16:09;;;;;;;0.40;0.40;;;;;;;;;;5164607;28;20046;-56
2023/11/30 02:18:40;;;;;;;0.88;0.40;;;;;;;;;;5164575;28;20045;-57
2023/11/30 02:21:11;;;;;;;1.90;0.43;;;;;;;;;;5157155;28;20520;-55
2023/11/30 02:23:43;;;;;;;1.55;0.40;;;;;;;;;;5170337;28;20366;-56
2023/11/30 02:26:14;;;;;;;1.55;0.38;;;;;;;;;;5153604;28;20106;-57
2023/11/30 02:28:45;;;;;;;3.10;0.40;;;;;;;;;;5164962;28;20057;-57
2023/11/30 02:31:16;;;;;;;0.82;0.32;;;;;;;;;;5166954;28;20128;-57
2023/11/30 02:33:47;;;;;;;0.95;0.40;;;;;;;;;;5165426;28;20444;-56
2023/11/30 02:36:18;;;;;;;1.33;0.50;;;;;;;;;;5168885;28;20052;-57
2023/11/30 02:38:49;;;;;;;2.00;0.57;;;;;;;;;;5165185;28;20159;-56
2023/11/30 02:41:21;;;;;;;1.10;0.40;;;;;;;;;;5165139;28;20081;-56
2023/11/30 02:43:52;;;;;;;0.95;0.30;;;;;;;;;;5164976;28;20121;-55
2023/11/30 02:46:23;;;;;;;1.60;0.55;;;;;;;;;;5158214;28;20056;-55
2023/11/30 02:48:54;;;;;;;0.63;0.32;;;;;;;;;;5164080;28;20144;-55
2023/11/30 02:51:26;;;;;;;1.00;0.57;;;;;;;;;;5175714;28;20041;-55
2023/11/30 02:53:57;;;;;;;1.27;0.50;;;;;;;;;;5165196;28;20096;-55
2023/11/30 02:56:28;;;;;;;2.25;0.60;;;;;;;;;;5172890;28;20037;-55
2023/11/30 02:58:59;;;;;;;1.92;0.30;;;;;;;;;;5167277;28;20445;-55
2023/11/30 03:01:30;;;;;;;1.70;0.50;;;;;;;;;;5167125;28;20049;-55
2023/11/30 03:04:01;;;;;;;1.13;0.38;;;;;;;;;;5164922;28;20065;-55
2023/11/30 03:06:33;;;;;;;1.60;0.40;;;;;;;;;;5165280;28;20048;-55
2023/11/30 03:09:04;;;;;;;;;;;;;;;;;;5166064;28;20707;-55
2023/11/30 03:11:35;;;;;;;1.17;0.35;;;;;;;;;;5168793;28;19917;-55
2023/11/30 03:14:08;;;;;;;2.47;0.50;;;;;;;;;;5161817;28;20038;-55
2023/11/30 03:16:39;;;;;;;;;;;;;;;;;;5165570;28;20092;-58
2023/11/30 03:19:10;;;;;;;2.55;0.35;;;;;;;;;;5164662;28;20331;-58
2023/11/30 03:21:41;;;;;;;2.78;0.40;;;;;;;;;;5174438;28;20046;-56
2023/11/30 03:24:13;;;;;;;0.68;0.30;;;;;;;;;;5175693;28;20038;-56
2023/11/30 03:26:44;;;;;;;0.32;0.22;;;;;;;;;;5167948;28;20141;-57
2023/11/30 03:29:15;;;;;;;0.40;0.20;;;;;;;;;;5168272;28;20053;-56
2023/11/30 03:31:47;;;;;;;0.80;0.40;;;;;;;;;;5175224;28;20050;-56
2023/11/30 03:34:18;;;;;;;0.50;0.30;;;;;;;;;;5168355;28;20041;-56
2023/11/30 03:36:49;;;;;;;1.48;0.40;;;;;;;;;;5185571;28;20042;-55
2023/11/30 03:39:20;;;;;;;2.25;0.40;;;;;;;;;;5167803;28;20095;-56
2023/11/30 03:41:51;;;;;;;0.87;0.30;;;;;;;;;;5168838;28;20447;-55
2023/11/30 03:44:22;;;;;;;2.85;0.50;;;;;;;;;;5167358;28;20172;-56
2023/11/30 03:46:54;;;;;;;0.77;0.55;;;;;;;;;;5166777;28;20053;-56
2023/11/30 03:49:25;;;;;;;1.33;0.47;;;;;;;;;;5181010;28;20082;-56
2023/11/30 03:51:56;;;;;;;0.88;0.45;;;;;;;;;;5168951;28;20116;-56
2023/11/30 03:54:27;;;;;;;0.80;0.40;;;;;;;;;;5167983;28;20037;-56
2023/11/30 03:56:59;;;;;;;3.38;0.50;;;;;;;;;;5168150;28;20050;-56
2023/11/30 03:59:31;;;;;;;0.60;0.40;;;;;;;;;;5162662;28;20052;-56
2023/11/30 04:02:02;;;;;;;0.70;0.30;;;;;;;;;;5173756;28;20046;-56
2023/11/30 04:04:34;;;;;;;3.22;0.50;;;;;;;;;;5170896;28;20042;-56
2023/11/30 04:07:05;;;;;;;1.50;0.68;;;;;;;;;;5167690;28;20120;-56
2023/11/30 04:09:39;;;;;;;2.87;0.63;;;;;;;;;;5167479;28;20064;-56
2023/11/30 04:12:11;;;;;;;0.70;0.35;;;;;;;;;;5167833;28;20293;-57
2023/11/30 04:14:42;;;;;;;1.20;0.65;;;;;;;;;;5170263;28;20247;-58
2023/11/30 04:17:13;;;;;;;0.60;0.60;;;;;;;;;;5168100;28;20058;-56
2023/11/30 04:19:44;;;;;;;1.48;0.60;;;;;;;;;;5167099;28;20049;-56
2023/11/30 04:22:15;;;;;;;0.90;0.40;;;;;;;;;;5159351;28;20569;-56
2023/11/30 04:24:46;;;;;;;0.50;0.30;;;;;;;;;;5167675;28;20053;-56
2023/11/30 04:27:17;;;;;;;0.90;0.40;;;;;;;;;;5167092;28;20037;-56
2023/11/30 04:29:48;;;;;;;0.87;0.67;;;;;;;;;;5167460;28;20126;-56
2023/11/30 04:32:19;;;;;;;1.55;0.40;;;;;;;;;;5183792;28;20128;-56
2023/11/30 04:34:51;;;;;;;2.58;0.75;;;;;;;;;;5170580;28;20041;-56
2023/11/30 04:37:23;;;;;;;1.67;0.33;;;;;;;;;;5166144;28;20053;-56
2023/11/30 04:39:54;;;;;;;0.73;0.50;;;;;;;;;;5169328;28;20054;-55
2023/11/30 04:42:25;;;;;;;1.85;0.70;;;;;;;;;;5167364;28;20116;-56
2023/11/30 04:44:56;;;;;;;1.50;0.60;;;;;;;;;;5171273;28;20579;-55
2023/11/30 04:47:27;;;;;;;0.60;0.60;;;;;;;;;;5171476;28;20050;-54
2023/11/30 04:49:58;;;;;;;1.77;0.67;;;;;;;;;;5166667;28;20400;-55
2023/11/30 04:52:29;;;;;;;0.93;0.65;;;;;;;;;;5166597;28;20046;-54
2023/11/30 04:55:00;;;;;;;3.67;0.73;;;;;;;;;;5168371;28;20439;-54
2023/11/30 04:57:32;;;;;;;1.83;0.73;;;;;;;;;;5166480;28;20105;-54
2023/11/30 05:00:05;;;;;;;1.00;0.75;;;;;;;;;;5166761;28;20680;-55
2023/11/30 05:02:40;;;;;;;1.48;0.75;;;;;;;;;;5170363;28;20068;-55
2023/11/30 05:05:11;;;;;;;1.55;0.60;;;;;;;;;;5176030;28;20069;-57
2023/11/30 05:07:42;;;;;;;0.88;0.60;;;;;;;;;;5166458;28;20115;-59
2023/11/30 05:10:13;;;;;;;1.63;0.70;;;;;;;;;;5167745;28;20044;-59
2023/11/30 05:12:45;;;;;;;1.58;0.98;;;;;;;;;;5166336;28;20128;-57
2023/11/30 05:15:16;;;;;;;1.13;0.73;;;;;;;;;;5166285;28;20104;-59
2023/11/30 05:17:47;;;;;;;1.48;0.80;;;;;;;;;;5167414;28;20492;-58
2023/11/30 05:20:18;;;;;;;2.58;0.70;;;;;;;;;;5168665;28;20037;-55
2023/11/30 05:22:50;;;;;;;0.87;0.57;;;;;;;;;;5153049;28;20048;-55
2023/11/30 05:25:21;;;;;;;2.17;0.90;;;;;;;;;;5153608;28;20291;-54
2023/11/30 05:27:52;;;;;;;1.48;0.82;;;;;;;;;;5166683;28;20096;-55
2023/11/30 05:30:23;;;;;;;1.17;0.70;;;;;;;;;;5166301;28;20042;-55
2023/11/30 05:32:54;;;;;;;0.70;0.47;;;;;;;;;;5166149;28;20068;-56
2023/11/30 05:35:25;;;;;;;1.58;0.73;;;;;;;;;;5168380;28;20653;-55
2023/11/30 05:37:58;;;;;;;1.53;0.60;;;;;;;;;;5162874;28;20041;-55
2023/11/30 05:40:29;;;;;;;0.85;0.40;;;;;;;;;;5172019;28;20042;-55
2023/11/30 05:43:00;;;;;;;1.42;0.57;;;;;;;;;;5178243;28;20175;-55
2023/11/30 05:45:31;;;;;;;0.60;0.47;;;;;;;;;;5150181;28;20144;-55
2023/11/30 05:48:03;;;;;;;1.88;0.98;;;;;;;;;;5166537;28;20516;-55
2023/11/30 05:50:35;;;;;;;1.40;1.00;;;;;;;;;;5177777;28;20419;-55
2023/11/30 05:53:06;;;;;;;2.33;1.08;;;;;;;;;;5165975;28;20424;-55
2023/11/30 05:55:37;;;;;;;1.35;0.80;;;;;;;;;;5167086;28;20041;-55
2023/11/30 05:58:08;;;;;;;1.55;1.10;;;;;;;;;;5198643;28;20591;-55
2023/11/30 06:00:39;;;;;;;3.05;1.42;;;;;;;;;;5171415;28;20049;-55
2023/11/30 06:03:11;;;;;;;1.48;1.20;;;;;;;;;;5156490;28;20041;-55
2023/11/30 06:05:42;;;;;;;1.58;1.30;;;;;;;;;;5169617;28;20072;-55
2023/11/30 06:08:13;;;;;;;1.52;1.08;;;;;;;;;;5164974;28;20128;-55
2023/11/30 06:10:44;;;;;;;1.42;1.13;;;;;;;;;;5165369;28;20042;-55
2023/11/30 06:13:15;;;;;;;1.42;1.00;;;;;;;;;;5165440;28;20041;-55
2023/11/30 06:15:46;;;;;;;1.17;0.90;;;;;;;;;;5164722;28;20038;-55
2023/11/30 06:18:17;;;;;;;3.15;1.17;;;;;;;;;;5155338;28;20046;-55
2023/11/30 06:20:49;;;;;;;1.90;1.20;;;;;;;;;;5165409;28;20042;-55
2023/11/30 06:23:20;;;;;;;1.88;1.33;;;;;;;;;;5170061;28;20053;-54
2023/11/30 06:25:51;;;;;;;1.33;1.10;;;;;;;;;;5151494;28;20064;-54
2023/11/30 06:28:22;;;;;;;1.70;1.20;;;;;;;;;;5165249;28;20050;-55
2023/11/30 06:30:53;;;;;;;1.77;1.40;;;;;;;;;;5165290;28;20206;-55
2023/11/30 06:33:24;;;;;;;2.17;1.55;;;;;;;;;;5165121;28;20038;-55
2023/11/30 06:35:55;;;;;;;2.45;1.40;;;;;;;;;;5165437;28;20507;-55
2023/11/30 06:38:26;;;;;;;2.42;1.80;;;;;;;;;;5165246;28;20049;-55
2023/11/30 06:40:58;;;;;;;1.95;1.30;;;;;;;;;;5165526;28;20132;-56
2023/11/30 06:43:29;;;;;;;2.83;1.75;;;;;;;;;;5165190;28;20044;-55
2023/11/30 06:46:00;;;;;;;2.47;1.75;;;;;;;;;;5165295;28;20077;-55
2023/11/30 06:48:31;;;;;;;3.45;2.00;;;;;;;;;;5165118;28;20038;-55
2023/11/30 06:51:06;;;;;;;2.80;1.73;;;;;;;;;;5165083;28;20041;-55
2023/11/30 06:53:37;;;;;;;2.72;2.00;;;;;;;;;;5164895;28;20464;-55
2023/11/30 06:56:11;;;;;;;3.15;1.92;;;;;;;;;;5165013;28;20049;-55
2023/11/30 06:58:42;;;;;;;2.70;1.85;;;;;;;;;;5169252;28;20054;-55
2023/11/30 07:01:13;;;;;;;4.00;2.03;;;;;;;;;;5166127;28;20049;-55
2023/11/30 07:03:45;;;;;;;2.70;1.80;;;;;;;;;;5168789;28;20068;-55
2023/11/30 07:06:16;;;;;;;3.15;2.03;;;;;;;;;;5169020;28;20440;-55
2023/11/30 07:08:47;;;;;;;2.80;1.95;;;;;;;;;;5169396;28;20046;-56
2023/11/30 07:11:18;;;;;;;3.78;1.90;;;;;;;;;;5168611;28;20092;-56
2023/11/30 07:13:49;;;;;;;4.40;2.22;;;;;;;;;;5169033;28;20080;-56
2023/11/30 07:16:20;;;;;;;2.67;1.90;;;;;;;;;;5168691;28;20092;-55
2023/11/30 07:18:51;;;;;;;3.30;2.17;;;;;;;;;;5168961;28;20068;-55
2023/11/30 07:21:22;;;;;;;3.40;2.55;;;;;;;;;;5168673;28;20060;-55
2023/11/30 07:23:54;;;;;;;4.05;1.98;;;;;;;;;;5167824;28;20045;-55
2023/11/30 07:26:26;;;;;;;3.30;2.47;;;;;;;;;;5168489;28;20080;-55
2023/11/30 07:28:57;;;;;;;;;;;;;;;;;;5168888;28;20046;-55
2023/11/30 07:31:28;;;;;;;5.20;2.80;;;;;;;;;;5186240;28;20351;-56
2023/11/30 07:33:59;;;;;;;4.72;2.83;;;;;;;;;;5168296;28;20045;-55
2023/11/30 07:36:30;;;;;;;3.30;2.47;;;;;;;;;;5168498;28;20038;-55
2023/11/30 07:39:02;;;;;;;5.30;2.70;;;;;;;;;;5168226;28;20042;-57
2023/11/30 07:41:33;;;;;;;3.70;2.43;;;;;;;;;;5167457;28;20069;-58
2023/11/30 07:44:05;;;;;;;4.20;2.60;;;;;;;;;;5167826;28;20053;-57
2023/11/30 07:46:36;;;;;;;4.47;2.88;;;;;;;;;;5167872;28;20120;-57
2023/11/30 07:49:07;;;;;;;3.72;2.92;;;;;;;;;;5168079;28;20061;-57
2023/11/30 07:51:38;;;;;;;8.48;3.80;;;;;;;;;;5168452;28;20461;-56
2023/11/30 07:54:09;;;;;;;4.53;2.80;;;;;;;;;;5168188;28;20444;-56
2023/11/30 07:56:40;;;;;;;5.97;3.50;;;;;;;;;;5167616;28;20034;-57
2023/11/30 07:59:12;;;;;;;6.53;3.10;;;;;;;;;;5167926;28;20095;-56
2023/11/30 08:01:43;;;;;;;7.75;3.78;;;;;;;;;;5168127;28;20378;-56
2023/11/30 08:04:14;;;;;;;5.50;2.83;;;;;;;;;;5169149;28;20041;-58
2023/11/30 08:06:46;;;;;;;7.13;3.37;;;;;;;;;;5167773;28;20046;-58
2023/11/30 08:09:17;;;;;;;8.13;3.80;;;;;;;;;;5167519;28;20100;-61
2023/11/30 08:11:48;;;;;;;9.30;4.27;;;;;;;;;;5167562;28;20049;-61
2023/11/30 08:14:20;;;;;;;8.98;4.80;;;;;;;;;;5160166;28;20113;-60
2023/11/30 08:16:51;;;;;;;10.43;4.47;;;;;;;;;;5167585;28;20036;-62
2023/11/30 08:19:22;;;;;;;8.95;4.35;;;;;;;;;;5167765;28;20540;-62
2023/11/30 08:21:53;;;;;;;4.55;2.78;;;;;;;;;;5167923;28;20042;-61
2023/11/30 08:24:24;;;;;;;8.23;2.67;;;;;;;;;;5179638;28;20396;-62
2023/11/30 08:26:55;;;;;;;3.83;2.20;;;;;;;;;;5168118;28;20057;-61
2023/11/30 08:29:26;;;;;;;5.00;2.00;;;;;;;;;;5180714;28;20480;-63
2023/11/30 08:31:58;;;;;;;5.20;2.55;;;;;;;;;;5166714;28;20041;-61
2023/11/30 08:34:29;;;;;;;3.65;1.75;;;;;;;;;;5167017;28;20404;-60
2023/11/30 08:37:00;;;;;;;3.35;2.40;;;;;;;;;;5166983;28;20495;-61
2023/11/30 08:39:31;;;;;;;3.03;1.60;;;;;;;;;;5167110;28;20373;-63
2023/11/30 08:42:02;;;;;;;2.67;1.48;;;;;;;;;;5166475;28;20045;-58
2023/11/30 08:44:35;;;;;;;5.07;2.27;;;;;;;;;;5166755;28;20049;-59
2023/11/30 08:47:07;;;;;;;4.03;2.30;;;;;;;;;;5166720;28;20065;-59
2023/11/30 08:49:38;;;;;;;5.50;1.90;;;;;;;;;;5166540;28;20038;-57
2023/11/30 08:52:09;;;;;;;3.70;1.77;;;;;;;;;;5166951;28;20183;-58
2023/11/30 08:54:40;;;;;;;3.07;1.60;;;;;;;;;;5166831;28;20455;-58
2023/11/30 08:57:12;;;;;;;4.17;1.50;;;;;;;;;;5167036;28;20100;-58
2023/11/30 08:59:45;;;;;;;3.38;1.30;;;;;;;;;;5166662;28;20041;-58
2023/11/30 09:02:18;;;;;;;3.05;1.48;;;;;;;;;;5166982;28;20053;-58
2023/11/30 09:04:49;;;;;;;4.18;1.70;;;;;;;;;;5166806;28;20046;-58
2023/11/30 09:07:21;;;;;;;4.73;2.20;;;;;;;;;;5167679;28;20551;-59
2023/11/30 09:09:52;;;;;;;1.50;1.35;;;;;;;;;;5164322;28;20381;-59
2023/11/30 09:12:23;;;;;;;4.03;1.77;;;;;;;;;;5167331;28;20123;-58
2023/11/30 09:14:54;;;;;;;1.60;1.30;;;;;;;;;;5167429;28;20072;-58
2023/11/30 09:17:25;;;;;;;3.53;1.30;;;;;;;;;;5167002;28;20092;-56
2023/11/30 09:19:56;;;;;;;2.60;1.55;;;;;;;;;;5166863;28;20049;-57
2023/11/30 09:22:28;;;;;;;3.17;1.10;;;;;;;;;;5163420;28;20049;-57
2023/11/30 09:24:59;;;;;;;4.78;1.38;;;;;;;;;;5166390;28;20511;-56
2023/11/30 09:27:30;;;;;;;3.40;1.50;;;;;;;;;;5166884;28;20072;-56
2023/11/30 09:30:01;;;;;;;4.10;1.52;;;;;;;;;;5166579;28;20299;-56
2023/11/30 09:32:32;;;;;;;2.03;1.20;;;;;;;;;;5166882;28;20480;-57
2023/11/30 09:35:07;;;;;;;3.28;1.27;;;;;;;;;;5166498;28;20042;-57
2023/11/30 09:37:38;;;;;;;6.72;2.30;;;;;;;;;;5167069;28;20498;-57
2023/11/30 09:40:10;;;;;;;3.92;2.28;;;;;;;;;;5166644;28;20495;-57
2023/11/30 09:42:41;;;;;;;;;;;;;;;;;;5167331;28;20507;-57
2023/11/30 09:45:14;;;;;;;7.78;3.97;;;;;;;;;;5199085;28;20552;-57
2023/11/30 09:47:45;;;;;;;6.95;4.57;;;;;;;;;;5165360;28;20065;-57
2023/11/30 09:50:16;;;;;;;6.50;4.60;;;;;;;;;;5165769;28;20492;-57
2023/11/30 09:52:47;;;;;;;6.97;4.05;;;;;;;;;;5166445;28;20374;-57
2023/11/30 09:55:20;;;;;;;5.57;3.47;;;;;;;;;;5165798;28;20113;-56
2023/11/30 09:57:51;;;;;;;6.35;3.92;;;;;;;;;;5166157;28;20377;-56
2023/11/30 10:00:22;;;;;;;7.47;4.10;;;;;;;;;;5168808;28;20346;-60
2023/11/30 10:02:54;;;;;;;5.47;3.55;;;;;;;;;;5153826;28;20121;-61
2023/11/30 10:05:28;;;;;;;7.03;3.95;;;;;;;;;;5165947;28;20049;-60
2023/11/30 10:07:59;;;;;;;5.10;3.55;;;;;;;;;;5166068;28;20050;-60
2023/11/30 10:10:30;;;;;;;8.37;4.10;;;;;;;;;;5166664;28;20145;-61
2023/11/30 10:13:02;;;;;;;5.00;3.40;;;;;;;;;;5166214;28;20504;-60
2023/11/30 10:15:33;;;;;;;;;;;;;;;;;;5166449;28;20046;-60
2023/11/30 10:18:05;;;;;;;3.03;2.05;;;;;;;;;;5166036;28;20322;-61
2023/11/30 10:20:37;;;;;;;3.78;2.30;;;;;;;;;;5165230;28;20045;-57
2023/11/30 10:23:12;;;;;;;4.82;2.08;;;;;;;;;;5168572;28;20444;-56
2023/11/30 10:25:43;;;;;;;2.65;1.45;;;;;;;;;;5152756;28;20152;-57
2023/11/30 10:28:14;;;;;;;2.33;1.13;;;;;;;;;;5165519;28;20068;-56
2023/11/30 10:30:46;;;;;;;2.75;1.25;;;;;;;;;;5164741;28;20048;-57
2023/11/30 10:33:22;;;;;;;1.98;0.70;;;;;;;;;;5165236;28;20125;-56
2023/11/30 10:35:53;;;;;;;0.90;0.70;;;;;;;;;;5181736;28;20116;-56
2023/11/30 10:38:28;;;;;;;3.28;0.98;;;;;;;;;;5169143;28;20077;-57
2023/11/30 10:41:12;;;;;;;2.65;1.00;;;;;;;;;;5169437;28;20045;-57
2023/11/30 10:43:48;;;;;;;2.25;0.80;;;;;;;;;;5169280;28;20435;-56
2023/11/30 10:46:21;;;;;;;1.38;0.70;;;;;;;;;;5168961;28;20056;-57
2023/11/30 10:48:54;;;;;;;2.22;1.30;;;;;;;;;;5169215;28;20053;-58
2023/11/30 10:51:25;;;;;;;2.25;1.08;;;;;;;;;;5169070;28;20456;-57
2023/11/30 10:54:14;;;;;;;7.35;1.20;;;;;;;;;;5169116;28;20469;-57
2023/11/30 10:56:45;;;;;;;2.47;1.00;;;;;;;;;;5167999;28;20050;-58
2023/11/30 10:59:16;;;;;;;2.10;0.93;;;;;;;;;;5178158;28;20053;-57
2023/11/30 11:01:51;;;;;;;2.67;1.20;;;;;;;;;;5169008;28;20046;-57
2023/11/30 11:04:23;;;;;;;2.67;1.38;;;;;;;;;;5168905;28;20279;-58
2023/11/30 11:07:05;;;;;;;3.83;1.30;;;;;;;;;;5168766;28;20112;-58
2023/11/30 11:09:43;;;;;;;3.05;1.38;;;;;;;;;;5168524;28;20591;-59
2023/11/30 11:12:19;;;;;;;1.52;1.00;;;;;;;;;;5171510;28;20041;-58
2023/11/30 11:14:50;;;;;;;1.10;0.75;;;;;;;;;;5172530;28;20125;-59
2023/11/30 11:17:21;;;;;;;1.40;0.45;;;;;;;;;;5169086;28;20499;-58
2023/11/30 11:19:53;;;;;;;1.33;0.47;;;;;;;;;;5168883;28;20192;-58
2023/11/30 11:22:24;;;;;;;1.60;0.85;;;;;;;;;;5167668;28;20315;-58
2023/11/30 11:24:56;;;;;;;1.77;0.90;;;;;;;;;;5168856;28;20045;-58
2023/11/30 11:27:31;;;;;;;1.38;0.60;;;;;;;;;;5168206;28;20271;-58
2023/11/30 11:30:05;;;;;;;1.77;0.80;;;;;;;;;;5168298;28;20510;-58
2023/11/30 11:32:36;;;;;;;4.78;1.00;;;;;;;;;;5168247;28;20116;-58
2023/11/30 11:35:07;;;;;;;0.73;0.50;;;;;;;;;;5168310;28;20041;-57
2023/11/30 11:37:38;;;;;;;2.33;0.43;;;;;;;;;;5168475;28;20467;-58
2023/11/30 11:40:10;;;;;;;2.92;0.90;;;;;;;;;;5168531;28;20042;-58
2023/11/30 11:42:41;;;;;;;1.30;0.70;;;;;;;;;;5168003;28;20038;-58
2023/11/30 11:45:12;;;;;;;3.35;0.70;;;;;;;;;;5168122;28;20050;-57
2023/11/30 11:47:44;;;;;;;3.42;0.85;;;;;;;;;;5170139;28;20041;-58
2023/11/30 11:50:15;;;;;;;1.47;0.57;;;;;;;;;;5168018;28;20046;-58
2023/11/30 11:52:46;;;;;;;4.17;0.83;;;;;;;;;;5168077;28;20275;-62
2023/11/30 11:55:17;;;;;;;1.97;0.80;;;;;;;;;;5168400;28;20275;-59
2023/11/30 11:57:49;;;;;;;4.70;0.87;;;;;;;;;;5168010;28;20042;-58
2023/11/30 12:00:20;;;;;;;1.40;0.50;;;;;;;;;;5168314;28;20100;-59
2023/11/30 12:02:52;;;;;;;1.88;0.63;;;;;;;;;;5167600;28;20056;-59
2023/11/30 12:05:26;;;;;;;1.73;0.77;;;;;;;;;;5168033;28;20120;-58
2023/11/30 12:07:59;;;;;;;3.40;0.80;;;;;;;;;;5157472;28;20085;-58
2023/11/30 12:10:40;;;;;;;0.75;0.60;;;;;;;;;;5151484;28;20034;-58
2023/11/30 12:13:12;;;;;;;9.13;0.90;;;;;;;;;;5167576;28;20090;-57
2023/11/30 12:15:43;;;;;;;6.20;0.98;;;;;;;;;;5165981;28;20037;-56
2023/11/30 12:18:14;;;;;;;4.13;1.10;;;;;;;;;;5158129;28;20034;-57
2023/11/30 12:20:45;;;;;;;4.97;1.07;;;;;;;;;;5167066;28;20050;-58
2023/11/30 12:23:17;;;;;;;2.60;0.65;;;;;;;;;;5166754;28;20761;-57
2023/11/30 12:25:48;;;;;;;2.30;0.80;;;;;;;;;;5150737;28;20121;-58
2023/11/30 12:28:19;;;;;;;4.57;0.80;;;;;;;;;;5167369;28;20322;-57
2023/11/30 12:30:50;;;;;;;1.93;0.60;;;;;;;;;;5171504;28;20038;-57
2023/11/30 12:33:22;;;;;;;1.50;0.60;;;;;;;;;;5167220;28;20034;-57
2023/11/30 12:35:54;;;;;;;3.53;0.93;;;;;;;;;;5167106;28;20665;-58
2023/11/30 12:38:26;;;;;;;3.78;1.20;;;;;;;;;;5167011;28;20038;-58
2023/11/30 12:40:57;;;;;;;2.80;0.82;;;;;;;;;;5167020;28;20046;-57
2023/11/30 12:43:28;;;;;;;3.70;1.08;;;;;;;;;;5167163;28;20038;-58
2023/11/30 12:45:59;;;;;;;6.13;1.10;;;;;;;;;;5172762;28;20042;-58
2023/11/30 12:48:31;;;;;;;4.73;1.40;;;;;;;;;;5167368;28;20065;-56
2023/11/30 12:51:02;;;;;;;3.65;1.20;;;;;;;;;;5166523;28;20046;-56
2023/11/30 12:53:33;;;;;;;2.92;1.05;;;;;;;;;;5166757;28;20042;-56
2023/11/30 12:56:04;;;;;;;2.20;1.00;;;;;;;;;;5165909;28;20466;-56
2023/11/30 12:58:36;;;;;;;6.38;1.10;;;;;;;;;;5167373;28;20072;-56
2023/11/30 13:01:07;;;;;;;2.78;0.90;;;;;;;;;;5165334;28;20034;-58
2023/11/30 13:03:38;;;;;;;2.23;1.10;;;;;;;;;;5166765;28;20077;-57
2023/11/30 13:06:09;;;;;;;1.37;0.90;;;;;;;;;;5166691;28;20125;-57
2023/11/30 13:08:41;;;;;;;3.40;1.33;;;;;;;;;;5167371;28;20100;-58
2023/11/30 13:11:12;;;;;;;4.25;2.40;;;;;;;;;;5166376;28;20076;-58
2023/11/30 13:13:43;;;;;;;3.00;1.67;;;;;;;;;;5166654;28;20060;-55
2023/11/30 13:16:14;;;;;;;4.38;2.00;;;;;;;;;;5166898;28;20415;-55
2023/11/30 13:18:45;;;;;;;4.87;1.77;;;;;;;;;;5166620;28;20046;-55
2023/11/30 13:21:16;;;;;;;4.13;1.73;;;;;;;;;;5166669;28;20436;-55
2023/11/30 13:23:47;;;;;;;3.53;2.10;;;;;;;;;;5164966;28;20053;-55
2023/11/30 13:26:19;;;;;;;3.53;1.67;;;;;;;;;;5166515;28;20275;-55
2023/11/30 13:28:50;;;;;;;6.63;1.87;;;;;;;;;;5166542;28;20404;-55
2023/11/30 13:31:21;;;;;;;4.47;2.20;;;;;;;;;;5166647;28;20073;-55
2023/11/30 13:33:52;;;;;;;5.47;2.27;;;;;;;;;;5166517;28;20144;-55
2023/11/30 13:36:23;;;;;;;4.60;2.17;;;;;;;;;;5166658;28;20274;-55
2023/11/30 13:38:54;;;;;;;9.05;3.88;;;;;;;;;;5166476;28;20491;-56
2023/11/30 13:41:25;;;;;;;50.73;13.10;;;;;;;;;;5166341;28;20045;-56
2023/11/30 13:43:57;;;;;;;11.43;4.87;;;;;;;;;;5165872;28;20492;-55
2023/11/30 13:46:28;;;;;;;8.00;2.90;;;;;;;;;;5165791;28;20042;-55
2023/11/30 13:48:59;;;;;;;4.63;2.07;;;;;;;;;;5165445;28;20056;-54
2023/11/30 13:51:30;;;;;;;4.70;2.23;;;;;;;;;;5165964;28;20077;-54
2023/11/30 13:54:01;;;;;;;5.18;2.25;;;;;;;;;;5166052;28;20499;-55
2023/11/30 13:56:33;;;;;;;5.20;2.47;;;;;;;;;;5167615;28;20084;-55
2023/11/30 13:59:04;;;;;;;5.43;2.47;;;;;;;;;;5165881;28;20042;-55
2023/11/30 14:01:35;;;;;;;4.95;2.85;;;;;;;;;;5165508;28;20038;-55
2023/11/30 14:04:07;;;;;;;3.67;2.00;;;;;;;;;;5165891;28;20092;-55
2023/11/30 14:06:38;;;;;;;4.85;1.95;;;;;;;;;;5165546;28;20045;-55
2023/11/30 14:09:25;;;;;;;3.97;2.28;;;;;;;;;;5149443;28;20060;-55
2023/11/30 14:11:57;;;;;;;5.00;1.70;;;;;;;;;;5156607;28;20552;-56
2023/11/30 14:14:28;;;;;;;3.95;1.85;;;;;;;;;;5167784;28;20048;-54
2023/11/30 14:17:03;;;;;;;6.07;2.30;;;;;;;;;;5181920;28;20088;-57
2023/11/30 14:19:34;;;;;;;2.58;1.80;;;;;;;;;;5165217;28;20126;-56
2023/11/30 14:22:07;;;;;;;5.53;1.98;;;;;;;;;;5165326;28;20201;-56
2023/11/30 14:24:39;;;;;;;4.97;2.17;;;;;;;;;;5181403;28;20038;-56
2023/11/30 14:27:11;;;;;;;4.65;2.53;;;;;;;;;;5165375;28;20060;-55
2023/11/30 14:29:42;;;;;;;4.35;2.53;;;;;;;;;;5165937;28;20046;-56
2023/11/30 14:32:13;;;;;;;5.30;2.25;;;;;;;;;;5165676;28;20030;-56
2023/11/30 14:34:44;;;;;;;4.10;2.27;;;;;;;;;;5156682;28;20072;-61
2023/11/30 14:37:20;;;;;;;3.45;1.70;;;;;;;;;;5166878;28;20041;-59
2023/11/30 14:39:51;;;;;;;3.50;2.08;;;;;;;;;;5157207;28;20118;-60
2023/11/30 14:42:22;;;;;;;1.97;1.40;;;;;;;;;;5170387;28;20033;-58
2023/11/30 14:44:53;;;;;;;4.18;1.15;;;;;;;;;;5159762;28;20500;-58
2023/11/30 14:47:26;;;;;;;1.67;0.93;;;;;;;;;;5159308;28;20042;-62
2023/11/30 14:49:57;;;;;;;1.48;1.00;;;;;;;;;;5171091;28;20093;-58
2023/11/30 14:52:33;;;;;;;2.20;0.63;;;;;;;;;;5168104;28;20042;-61
2023/11/30 14:55:12;;;;;;;1.27;0.65;;;;;;;;;;5173858;28;20073;-60
2023/11/30 14:57:43;;;;;;;0.68;0.40;;;;;;;;;;5161036;28;20093;-62
2023/11/30 15:00:16;;;;;;;1.50;0.85;;;;;;;;;;5164953;28;20042;-62
2023/11/30 15:02:48;;;;;;;0.93;0.40;;;;;;;;;;5174574;28;20046;-61
2023/11/30 15:05:19;;;;;;;0.80;0.52;;;;;;;;;;5165323;28;20053;-61
2023/11/30 15:07:50;;;;;;;1.48;0.65;;;;;;;;;;5165737;28;20052;-61
2023/11/30 15:10:24;;;;;;;1.33;0.37;;;;;;;;;;5165048;28;20060;-61
2023/11/30 15:12:55;;;;;;;3.45;1.10;;;;;;;;;;5165011;28;20084;-61